Sandy Lake Airport
CZSJ : rendu visible

Aérodrome :











RETROUVEZ-NOUS SUR...

 
LOGIN :

S'inscrire | Disclaimer

   EN    FR    IT 

 









Légende :    VFR   VFR Marginal   IFR   IFR Intensif   IFR Très Intensif
Visi : 
Plafond : 
>= 8 km
>= 3000ft
5 à 8 km
1000 à 3000 ft
1500m à 5 km
500 à 1000 ft
800 à 1500m
200 à 500 ft
< 800m
< 200 ft
Symboles :   Orages  Brouillard  Fortes neiges  Fortes précipitations  Vent > 20 kt







- Altitude de l'aérodrome : 951 ft
- Code IATA : ZSJ


CZSJ - Sandy Lake

DERNIER METAR :
  • 151100Z AUTO 16005KT 9SM BKN110 BKN190 OVC210 11/08 A2984 RMK SLP114

METARs EXPIRÉS :
  • 151000Z AUTO 16003KT 090V200 9SM BKN085 OVC110 11/08 A2985 RMK SLP116
  • 150900Z AUTO 15004KT 090V180 9SM BKN060 OVC099 11/08 A2985 RMK SLP116

TAF TAF CZSJ
Valide du 15 à 10h jusqu'au 15 à 22h UTC


150938Z 1510/1522 VRB03KT P6SM FEW015 SCT060
TEMPO 1510/1515 SCT015 BKN060
BECMG 1515/1517 20008KT RMK FCST BASED ON AUTO OBS. NXT FCST BY 151600Z
Pas de NOTAMs connus pour ce terrain.



MET'MAP, la Météo Aéronautique d'un coup d'oeil ! - Copyright ORBIFLY Décembre 2007 - Disclaimer

ORBIFLY MET'MAP TEAM :

Programmation & Développement : Alexandra Zaïnal
Conception & Développement : Baudouin d'Aumeries
Co-Programmation & Développement : Marc-Olivier Méhu
Soutien technique & logistique : Manuel Goepfert

Contact : metmap@orbifly.com




SOURCES & CREDITS :

   NOAA       Earth
Advisory